createdAt,value
2018-08-27T00:02:03.911Z,61.70
2018-08-27T00:04:31.267Z,62.00
2018-08-27T00:06:58.589Z,62.80
2018-08-27T00:09:25.960Z,63.30
2018-08-27T00:11:53.245Z,63.10
2018-08-27T00:14:20.596Z,63.00
2018-08-27T00:16:47.938Z,62.50
2018-08-27T00:19:15.241Z,62.00
2018-08-27T00:21:42.546Z,62.20
2018-08-27T00:24:09.826Z,62.50
2018-08-27T00:26:37.150Z,64.20
2018-08-27T00:29:04.451Z,63.20
2018-08-27T00:31:31.790Z,62.20
2018-08-27T00:33:59.110Z,62.00
2018-08-27T00:36:26.406Z,62.30
2018-08-27T00:38:53.721Z,61.70
2018-08-27T00:41:21.027Z,61.70
2018-08-27T00:43:48.372Z,61.40
2018-08-27T00:46:15.707Z,61.40
2018-08-27T00:48:43.015Z,61.90
2018-08-27T00:51:10.342Z,62.00
2018-08-27T00:53:37.662Z,62.30
2018-08-27T00:56:05.523Z,62.60
2018-08-27T00:58:32.814Z,62.50
2018-08-27T01:01:00.119Z,63.00
2018-08-27T01:03:27.441Z,63.50
2018-08-27T01:05:54.725Z,63.70
2018-08-27T01:08:22.048Z,62.90
2018-08-27T01:10:49.447Z,63.40
2018-08-27T01:13:16.789Z,61.80
2018-08-27T01:15:44.078Z,62.30
2018-08-27T01:18:11.379Z,62.60
2018-08-27T01:20:38.693Z,62.70
2018-08-27T01:23:05.984Z,62.10
2018-08-27T01:25:33.287Z,62.50
2018-08-27T01:28:07.366Z,61.10
2018-08-27T01:30:34.696Z,61.20
2018-08-27T01:33:02.003Z,61.30
2018-08-27T01:35:29.304Z,61.80
2018-08-27T01:37:56.601Z,61.30
2018-08-27T01:40:23.904Z,61.40
2018-08-27T01:42:51.224Z,62.30
2018-08-27T01:45:18.522Z,62.70
2018-08-27T01:47:45.887Z,62.20
2018-08-27T01:50:13.204Z,62.20
2018-08-27T01:52:40.494Z,61.30
2018-08-27T01:55:07.822Z,61.10
2018-08-27T01:57:35.153Z,61.40
2018-08-27T02:00:02.447Z,61.80
2018-08-27T02:02:29.761Z,61.80
2018-08-27T02:04:57.071Z,61.70
2018-08-27T02:07:24.372Z,63.00
2018-08-27T02:09:51.693Z,62.80
2018-08-27T02:12:19.002Z,62.70
2018-08-27T02:14:46.312Z,62.60
2018-08-27T02:17:13.590Z,61.70
2018-08-27T02:19:40.917Z,61.50
2018-08-27T02:22:08.246Z,62.00
2018-08-27T02:24:35.566Z,61.70
2018-08-27T02:27:02.882Z,62.10
2018-08-27T02:29:30.190Z,61.30
2018-08-27T02:31:57.516Z,61.60
2018-08-27T02:34:24.865Z,62.20
2018-08-27T02:36:52.193Z,61.50
2018-08-27T02:39:19.526Z,61.20
2018-08-27T02:41:46.889Z,61.20
2018-08-27T02:44:14.212Z,60.80
2018-08-27T02:46:41.555Z,60.80
2018-08-27T02:49:08.871Z,61.10
2018-08-27T02:51:36.216Z,61.40
2018-08-27T02:54:03.583Z,62.40
2018-08-27T02:56:30.948Z,62.50
2018-08-27T02:58:58.245Z,62.70
2018-08-27T03:01:25.560Z,62.80
2018-08-27T03:03:52.894Z,63.00
2018-08-27T03:06:20.216Z,63.30
2018-08-27T03:08:47.543Z,62.70
2018-08-27T03:11:14.901Z,63.30
2018-08-27T03:13:42.184Z,64.20
2018-08-27T03:16:09.570Z,63.30
2018-08-27T03:18:36.927Z,63.80
2018-08-27T03:21:04.210Z,64.30
2018-08-27T03:23:31.542Z,65.00
2018-08-27T03:25:58.827Z,65.40
2018-08-27T03:28:26.122Z,65.30
2018-08-27T03:30:53.455Z,65.20
2018-08-27T03:33:20.743Z,65.10
2018-08-27T03:35:48.113Z,64.80
2018-08-27T03:38:15.438Z,64.80
2018-08-27T03:40:42.785Z,65.00
2018-08-27T03:43:10.030Z,64.80
2018-08-27T03:45:37.341Z,64.50
2018-08-27T03:48:04.763Z,64.40
2018-08-27T03:50:32.080Z,64.60
2018-08-27T03:52:59.390Z,64.30
2018-08-27T03:55:26.700Z,64.40
2018-08-27T03:57:54.018Z,64.60
2018-08-27T04:00:21.359Z,64.20
2018-08-27T04:02:48.742Z,63.80
2018-08-27T04:05:16.098Z,63.70
2018-08-27T04:07:43.397Z,63.50
2018-08-27T04:10:10.699Z,63.60
2018-08-27T04:12:37.987Z,63.80
2018-08-27T04:15:05.308Z,64.10
2018-08-27T04:17:32.620Z,64.10
2018-08-27T04:19:59.905Z,64.20
2018-08-27T04:22:27.247Z,64.00
2018-08-27T04:24:54.543Z,63.70
2018-08-27T04:27:21.852Z,64.00
2018-08-27T04:29:49.187Z,64.00
2018-08-27T04:32:16.527Z,63.90
2018-08-27T04:34:43.867Z,63.60
2018-08-27T04:37:11.157Z,64.50
2018-08-27T04:39:38.443Z,66.90
2018-08-27T04:42:05.761Z,68.50
2018-08-27T04:44:33.047Z,69.40
2018-08-27T04:47:00.383Z,70.80
2018-08-27T04:49:27.697Z,71.70
2018-08-27T04:51:55.010Z,71.80
2018-08-27T04:54:22.357Z,72.10
2018-08-27T04:56:49.695Z,71.70
2018-08-27T04:59:17.011Z,72.10
2018-08-27T05:01:44.331Z,72.00
2018-08-27T05:04:11.632Z,72.50
2018-08-27T05:06:38.979Z,72.60
2018-08-27T05:09:06.983Z,72.80
2018-08-27T05:11:34.289Z,72.30
2018-08-27T05:14:01.598Z,72.60
2018-08-27T05:16:28.892Z,72.40
2018-08-27T05:18:56.214Z,72.00
2018-08-27T05:21:23.559Z,71.80
2018-08-27T05:23:50.851Z,72.00
2018-08-27T05:26:18.198Z,72.10
2018-08-27T05:28:45.726Z,71.10
2018-08-27T05:31:13.044Z,71.00
2018-08-27T05:33:40.367Z,71.50
2018-08-27T05:36:07.753Z,72.40
2018-08-27T05:38:35.097Z,71.60
2018-08-27T05:41:02.422Z,71.20
2018-08-27T05:43:29.763Z,72.40
2018-08-27T05:45:57.077Z,74.20
2018-08-27T05:48:24.402Z,74.70
2018-08-27T05:50:51.747Z,74.40
2018-08-27T05:53:19.275Z,75.40
2018-08-27T05:55:46.612Z,75.50
2018-08-27T05:58:13.939Z,76.10
2018-08-27T06:00:41.586Z,76.70
2018-08-27T06:03:08.954Z,77.60
2018-08-27T06:05:36.668Z,79.20
2018-08-27T06:08:04.375Z,78.40
2018-08-27T06:10:31.692Z,78.20
2018-08-27T06:12:59.033Z,78.50
2018-08-27T06:15:26.367Z,77.90
2018-08-27T06:17:53.666Z,77.30
2018-08-27T06:20:21.087Z,78.20
2018-08-27T06:22:48.463Z,79.40
2018-08-27T06:25:15.826Z,80.20
2018-08-27T06:27:43.236Z,80.40
2018-08-27T06:30:10.557Z,79.60
2018-08-27T06:32:37.982Z,79.50
2018-08-27T06:35:05.380Z,78.90
2018-08-27T06:37:32.684Z,78.60
2018-08-27T06:39:59.995Z,77.70
2018-08-27T06:42:27.308Z,77.80
2018-08-27T06:44:54.668Z,77.80
2018-08-27T06:47:21.992Z,77.30
2018-08-27T06:49:49.332Z,77.70
2018-08-27T06:52:16.689Z,77.00
2018-08-27T06:54:43.991Z,77.30
2018-08-27T06:57:11.318Z,77.70
2018-08-27T06:59:38.625Z,78.30
2018-08-27T07:02:05.991Z,78.30
2018-08-27T07:04:33.250Z,78.40
2018-08-27T07:07:00.577Z,77.40
2018-08-27T07:09:27.931Z,77.00
2018-08-27T07:11:55.246Z,76.30
2018-08-27T07:14:22.543Z,76.80
2018-08-27T07:16:49.883Z,77.30
2018-08-27T07:19:17.217Z,77.00
2018-08-27T07:21:44.675Z,76.80
2018-08-27T07:24:12.038Z,76.90
2018-08-27T07:26:39.383Z,76.80
2018-08-27T07:29:06.757Z,76.50
2018-08-27T07:31:34.096Z,76.30
2018-08-27T07:34:01.419Z,76.40
2018-08-27T07:36:28.798Z,75.80
2018-08-27T07:38:56.105Z,76.60
2018-08-27T07:41:23.460Z,76.50
2018-08-27T07:43:50.783Z,76.90
2018-08-27T07:46:18.131Z,77.60
2018-08-27T07:48:45.482Z,77.60
2018-08-27T07:51:12.976Z,78.20
2018-08-27T07:53:40.265Z,77.70
2018-08-27T07:56:07.622Z,78.20
2018-08-27T07:58:34.964Z,78.50
2018-08-27T08:01:02.335Z,78.80
2018-08-27T08:03:29.671Z,78.90
2018-08-27T08:05:57.007Z,79.40
2018-08-27T08:08:24.332Z,79.40
2018-08-27T08:10:51.628Z,79.60
2018-08-27T08:13:18.934Z,80.10
2018-08-27T08:15:46.274Z,79.60
2018-08-27T08:18:13.611Z,79.70
2018-08-27T08:20:40.946Z,79.80
2018-08-27T08:23:08.233Z,80.20
2018-08-27T08:25:35.526Z,80.00
2018-08-27T08:28:02.854Z,79.80
2018-08-27T08:30:30.150Z,78.70
2018-08-27T08:32:57.431Z,79.20
2018-08-27T08:35:24.783Z,79.20
2018-08-27T08:37:52.069Z,78.60
2018-08-27T08:40:19.419Z,78.50
2018-08-27T08:42:46.719Z,78.40
2018-08-27T08:45:14.031Z,78.40
2018-08-27T08:47:41.336Z,78.60
2018-08-27T08:50:08.658Z,78.90
2018-08-27T08:52:35.970Z,78.60
2018-08-27T08:55:03.418Z,78.00
2018-08-27T08:57:30.703Z,78.40
2018-08-27T08:59:58.019Z,77.90
2018-08-27T09:02:25.315Z,78.20
2018-08-27T09:04:52.615Z,77.50
2018-08-27T09:07:19.954Z,77.40
2018-08-27T09:09:47.349Z,77.30
2018-08-27T09:12:15.113Z,76.70
2018-08-27T09:14:42.399Z,77.00
2018-08-27T09:17:09.752Z,77.10
2018-08-27T09:19:37.091Z,77.70
2018-08-27T09:22:04.462Z,76.90
2018-08-27T09:24:31.781Z,77.20
2018-08-27T09:26:59.086Z,77.00
2018-08-27T09:29:26.391Z,77.20
2018-08-27T09:31:53.708Z,77.40
2018-08-27T09:34:20.993Z,76.50
2018-08-27T09:36:48.340Z,76.70
2018-08-27T09:39:15.646Z,76.00
2018-08-27T09:41:43.097Z,74.40
2018-08-27T09:44:10.337Z,74.70
2018-08-27T09:46:37.667Z,74.30
2018-08-27T09:49:04.989Z,74.00
2018-08-27T09:51:32.328Z,73.80
2018-08-27T09:53:59.628Z,73.70
2018-08-27T09:56:26.915Z,74.40
2018-08-27T09:58:54.269Z,74.30
2018-08-27T10:01:21.519Z,73.80
2018-08-27T10:03:48.851Z,73.60
2018-08-27T10:06:16.261Z,73.80
2018-08-27T10:08:43.718Z,73.90
2018-08-27T10:11:11.065Z,73.90
2018-08-27T10:13:38.378Z,73.60
2018-08-27T10:16:05.729Z,73.20
2018-08-27T10:18:33.026Z,72.60
2018-08-27T10:21:00.339Z,72.60
2018-08-27T10:23:27.617Z,72.60
2018-08-27T10:25:54.934Z,73.10
2018-08-27T10:28:22.295Z,73.00
2018-08-27T10:30:49.704Z,73.20
2018-08-27T10:33:17.078Z,72.50
2018-08-27T10:35:44.419Z,72.40
2018-08-27T10:38:11.723Z,72.70
2018-08-27T10:40:39.045Z,72.60
2018-08-27T10:43:06.378Z,72.20
2018-08-27T10:45:33.697Z,72.40
2018-08-27T10:48:01.286Z,72.50
2018-08-27T10:50:28.600Z,72.40
2018-08-27T10:52:56.002Z,72.20
2018-08-27T10:55:23.294Z,72.10
2018-08-27T10:57:50.630Z,71.10
2018-08-27T11:00:18.024Z,71.60
2018-08-27T11:02:45.348Z,71.70
2018-08-27T11:05:12.737Z,71.70
2018-08-27T11:07:40.002Z,71.50
2018-08-27T11:10:07.311Z,71.40
2018-08-27T11:12:34.685Z,72.00
2018-08-27T11:15:01.978Z,71.60
2018-08-27T11:17:29.292Z,71.80
2018-08-27T11:19:56.689Z,71.70
2018-08-27T11:22:24.306Z,71.30
2018-08-27T11:24:51.670Z,71.40
2018-08-27T11:27:18.991Z,71.60
2018-08-27T11:29:46.402Z,71.90
2018-08-27T11:32:13.698Z,72.10
2018-08-27T11:34:41.022Z,72.50
2018-08-27T11:37:08.340Z,72.30
2018-08-27T11:39:35.670Z,72.30
2018-08-27T11:42:02.979Z,72.10
2018-08-27T11:44:30.291Z,72.70
2018-08-27T11:46:57.581Z,72.40
2018-08-27T11:49:24.902Z,72.70
2018-08-27T11:51:52.211Z,72.80
2018-08-27T11:54:19.555Z,73.00
2018-08-27T11:56:46.887Z,72.60
2018-08-27T11:59:14.174Z,72.90
2018-08-27T12:01:41.502Z,72.70
2018-08-27T12:04:08.810Z,72.20
2018-08-27T12:06:36.151Z,72.00
2018-08-27T12:09:04.529Z,71.40
2018-08-27T12:11:31.843Z,71.50
2018-08-27T12:13:59.171Z,71.70
2018-08-27T12:16:26.487Z,70.60
2018-08-27T12:18:53.805Z,70.80
2018-08-27T12:21:21.107Z,70.10
2018-08-27T12:23:48.493Z,69.30
2018-08-27T12:26:15.775Z,69.40
2018-08-27T12:28:43.077Z,69.80
2018-08-27T12:31:10.406Z,69.30
2018-08-27T12:33:37.699Z,69.30
2018-08-27T12:36:05.006Z,69.50
2018-08-27T12:38:32.325Z,69.70
2018-08-27T12:40:59.782Z,68.90
2018-08-27T12:43:27.106Z,69.00
2018-08-27T12:45:54.426Z,68.60
2018-08-27T12:48:21.771Z,68.90
2018-08-27T12:50:49.184Z,68.80
2018-08-27T12:53:16.494Z,68.90
2018-08-27T12:55:43.823Z,68.20
2018-08-27T12:58:11.208Z,68.30
2018-08-27T13:00:38.571Z,68.90
2018-08-27T13:03:05.901Z,69.50
2018-08-27T13:05:33.250Z,69.50
2018-08-27T13:08:00.610Z,68.90
2018-08-27T13:10:27.902Z,68.60
2018-08-27T13:12:55.287Z,69.40
2018-08-27T13:15:22.602Z,70.40
2018-08-27T13:17:49.978Z,70.30
2018-08-27T13:20:17.344Z,70.10
2018-08-27T13:22:44.723Z,70.10
2018-08-27T13:25:12.075Z,70.20
2018-08-27T13:27:39.386Z,69.80
2018-08-27T13:30:06.763Z,69.90
2018-08-27T13:32:34.240Z,71.30
2018-08-27T13:35:01.546Z,71.70
2018-08-27T13:37:28.885Z,72.00
2018-08-27T13:39:56.220Z,71.20
2018-08-27T13:42:23.583Z,70.30
2018-08-27T13:44:50.962Z,69.60
2018-08-27T13:47:18.352Z,69.40
2018-08-27T13:49:46.013Z,69.00
2018-08-27T13:52:13.389Z,69.50
2018-08-27T13:54:40.728Z,68.90
2018-08-27T13:57:08.050Z,68.50
2018-08-27T13:59:35.413Z,69.20
2018-08-27T14:02:02.758Z,69.10
2018-08-27T14:04:30.064Z,70.00
2018-08-27T14:06:57.375Z,70.10
2018-08-27T14:09:24.939Z,69.80
2018-08-27T14:11:52.287Z,70.00
2018-08-27T14:14:19.625Z,69.90
2018-08-27T14:16:47.031Z,69.80
2018-08-27T14:19:14.436Z,69.80
2018-08-27T14:21:41.689Z,69.60
2018-08-27T14:24:09.098Z,69.60
2018-08-27T14:26:36.451Z,69.80
2018-08-27T14:29:03.803Z,69.60
2018-08-27T14:31:31.200Z,69.90
2018-08-27T14:33:58.544Z,70.10
2018-08-27T14:36:25.862Z,70.30
2018-08-27T14:38:53.347Z,70.30
2018-08-27T14:41:20.585Z,69.90
2018-08-27T14:43:47.964Z,70.20
2018-08-27T14:46:15.404Z,69.70
2018-08-27T14:48:42.717Z,69.60
2018-08-27T14:51:10.103Z,69.60
2018-08-27T14:53:37.488Z,69.40
2018-08-27T14:56:04.855Z,69.30
2018-08-27T14:58:32.162Z,69.80
2018-08-27T15:00:59.500Z,70.20
2018-08-27T15:03:26.905Z,70.50
2018-08-27T15:05:54.261Z,70.00
2018-08-27T15:08:21.596Z,70.00
2018-08-27T15:10:48.929Z,70.00
2018-08-27T15:13:16.267Z,69.60
2018-08-27T15:15:43.835Z,69.10
2018-08-27T15:18:11.172Z,69.30
2018-08-27T15:20:38.586Z,68.50
2018-08-27T15:23:05.893Z,68.80
2018-08-27T15:25:33.249Z,68.40
2018-08-27T15:28:00.624Z,68.70
2018-08-27T15:30:28.074Z,68.40
2018-08-27T15:32:55.419Z,67.90
2018-08-27T15:35:22.719Z,68.10
2018-08-27T15:37:50.200Z,68.70
2018-08-27T15:40:17.600Z,69.00
2018-08-27T15:42:44.983Z,69.50
2018-08-27T15:45:12.301Z,69.60
2018-08-27T15:47:39.645Z,69.50
2018-08-27T15:50:07.445Z,69.60
2018-08-27T15:52:34.831Z,69.80
2018-08-27T15:55:02.202Z,70.00
2018-08-27T15:57:29.474Z,69.80
2018-08-27T15:59:56.808Z,69.40
2018-08-27T16:02:24.090Z,69.00
2018-08-27T16:04:51.407Z,69.50
2018-08-27T16:07:18.804Z,69.60
2018-08-27T16:09:46.193Z,69.50
2018-08-27T16:12:13.582Z,69.10
2018-08-27T16:14:41.021Z,68.50
2018-08-27T16:17:08.337Z,68.10
2018-08-27T16:19:35.701Z,66.90
2018-08-27T16:22:03.011Z,68.00
2018-08-27T16:24:30.338Z,68.50
2018-08-27T16:26:57.667Z,69.00
2018-08-27T16:29:25.063Z,69.00
2018-08-27T16:31:52.400Z,67.80
2018-08-27T16:34:19.755Z,67.20
2018-08-27T16:36:47.160Z,66.80
2018-08-27T16:39:14.458Z,65.30
2018-08-27T16:41:41.807Z,64.40
2018-08-27T16:44:09.141Z,63.50
2018-08-27T16:46:36.619Z,62.70
2018-08-27T16:49:03.918Z,62.80
2018-08-27T16:51:31.233Z,62.40
2018-08-27T16:53:58.636Z,62.20
2018-08-27T16:56:25.942Z,62.50
2018-08-27T16:58:53.240Z,63.70
2018-08-27T17:01:20.631Z,64.70
2018-08-27T17:03:47.934Z,65.40
2018-08-27T17:06:15.353Z,65.40
2018-08-27T17:08:42.647Z,64.90
2018-08-27T17:11:09.971Z,65.30
2018-08-27T17:13:37.282Z,66.00
2018-08-27T17:16:04.784Z,66.80
2018-08-27T17:18:32.128Z,67.80
2018-08-27T17:20:59.443Z,68.70
2018-08-27T17:23:26.745Z,69.10
2018-08-27T17:25:54.122Z,69.80
2018-08-27T17:28:21.483Z,70.30
2018-08-27T17:30:48.847Z,70.80
2018-08-27T17:33:16.158Z,71.20
2018-08-27T17:35:43.522Z,71.80
2018-08-27T17:38:10.843Z,72.00
2018-08-27T17:40:38.183Z,72.30
2018-08-27T17:43:05.589Z,72.60
2018-08-27T17:45:32.951Z,72.70
2018-08-27T17:48:00.228Z,72.80
2018-08-27T17:50:27.549Z,73.00
2018-08-27T17:52:54.861Z,73.00
2018-08-27T17:55:22.333Z,73.30
2018-08-27T17:57:49.626Z,73.40
2018-08-27T18:00:17.071Z,73.70
2018-08-27T18:02:44.371Z,73.80
2018-08-27T18:05:11.807Z,73.90
2018-08-27T18:07:39.097Z,74.10
2018-08-27T18:10:06.397Z,74.20
2018-08-27T18:12:33.739Z,74.50
2018-08-27T18:15:01.137Z,74.30
2018-08-27T18:17:28.470Z,74.40
2018-08-27T18:19:55.797Z,74.60
2018-08-27T18:22:23.170Z,74.50
2018-08-27T18:24:50.609Z,74.60
2018-08-27T18:27:17.986Z,74.60
2018-08-27T18:29:46.235Z,74.60
2018-08-27T18:32:13.671Z,74.70
2018-08-27T18:34:41.013Z,74.90
2018-08-27T18:37:08.334Z,75.10
2018-08-27T18:39:35.699Z,75.00
2018-08-27T18:42:03.137Z,75.80
2018-08-27T18:44:30.465Z,75.90
2018-08-27T18:46:57.821Z,76.10
2018-08-27T18:52:01.034Z,76.30
2018-08-27T18:54:28.340Z,76.40
2018-08-27T18:56:55.652Z,76.90
2018-08-27T18:59:23.067Z,77.10
2018-08-27T19:01:50.405Z,77.50
2018-08-27T19:04:17.813Z,77.50
2018-08-27T19:06:45.544Z,77.60
2018-08-27T19:09:12.799Z,77.70
2018-08-27T19:11:40.109Z,77.90
2018-08-27T19:14:07.503Z,78.00
2018-08-27T19:16:34.922Z,77.90
2018-08-27T19:19:02.392Z,78.20
2018-08-27T19:21:29.657Z,78.20
2018-08-27T19:23:57.099Z,78.20
2018-08-27T19:26:24.539Z,78.20
2018-08-27T19:28:51.919Z,78.20
2018-08-27T19:31:19.267Z,78.20
2018-08-27T19:33:46.626Z,78.30
2018-08-27T19:36:14.056Z,78.60
2018-08-27T19:38:41.231Z,78.50
2018-08-27T19:41:08.517Z,78.70
2018-08-27T19:43:35.839Z,78.40
2018-08-27T19:46:03.237Z,78.60
2018-08-27T19:48:30.447Z,78.70
2018-08-27T19:50:57.758Z,79.00
2018-08-27T19:53:25.116Z,79.30
2018-08-27T19:55:52.620Z,79.50
2018-08-27T19:58:19.952Z,79.60
2018-08-27T20:00:47.281Z,79.70
2018-08-27T20:03:14.574Z,79.90
2018-08-27T20:05:41.905Z,80.10
2018-08-27T20:08:09.197Z,80.30
2018-08-27T20:10:36.578Z,80.30
2018-08-27T20:13:03.901Z,80.20
2018-08-27T20:15:31.296Z,80.80
2018-08-27T20:17:58.603Z,80.80
2018-08-27T20:20:25.990Z,80.80
2018-08-27T20:22:53.268Z,80.90
2018-08-27T20:25:20.851Z,80.80
2018-08-27T20:27:48.230Z,80.80
2018-08-27T20:30:15.576Z,80.80
2018-08-27T20:32:42.858Z,80.60
2018-08-27T20:35:10.159Z,80.90
2018-08-27T20:37:37.486Z,80.80
2018-08-27T20:40:04.876Z,80.80
2018-08-27T20:42:32.219Z,80.90
2018-08-27T20:44:59.579Z,80.80
2018-08-27T20:47:26.901Z,80.90
2018-08-27T20:49:54.209Z,80.80
2018-08-27T20:52:21.548Z,80.80
2018-08-27T20:54:49.185Z,81.30
2018-08-27T20:57:16.575Z,81.00
2018-08-27T20:59:43.811Z,81.30
2018-08-27T21:02:11.119Z,81.80
2018-08-27T21:04:38.474Z,82.30
2018-08-27T21:07:05.796Z,82.00
2018-08-27T21:09:33.085Z,82.10
2018-08-27T21:12:01.403Z,82.50
2018-08-27T21:15:01.074Z,82.50
2018-08-27T21:17:28.405Z,82.60
2018-08-27T21:19:55.755Z,82.50
2018-08-27T21:22:23.054Z,82.80
2018-08-27T21:24:50.368Z,82.50
2018-08-27T21:27:17.711Z,82.30
2018-08-27T21:29:45.027Z,82.10
2018-08-27T21:32:12.307Z,82.50
2018-08-27T21:34:39.615Z,83.20
2018-08-27T21:37:06.963Z,83.20
2018-08-27T21:39:34.276Z,83.20
2018-08-27T21:42:01.563Z,82.70
2018-08-27T21:44:28.887Z,82.30
2018-08-27T21:46:56.180Z,82.60
2018-08-27T21:49:23.499Z,83.20
2018-08-27T21:51:50.805Z,82.60
2018-08-27T21:54:18.111Z,82.20
2018-08-27T21:56:45.432Z,82.30
2018-08-27T21:59:12.767Z,83.10
2018-08-27T22:01:40.071Z,83.40
2018-08-27T22:04:07.393Z,84.00
2018-08-27T22:06:34.690Z,83.80
2018-08-27T22:09:01.998Z,83.70
2018-08-27T22:11:29.287Z,83.10
2018-08-27T22:13:56.590Z,83.00
2018-08-27T22:16:23.943Z,83.30
2018-08-27T22:18:51.263Z,83.70
2018-08-27T22:21:18.623Z,83.70
2018-08-27T22:23:45.920Z,83.40
2018-08-27T22:26:13.230Z,83.50
2018-08-27T22:28:40.545Z,83.30
2018-08-27T22:31:07.865Z,84.30
2018-08-27T22:33:35.165Z,84.80
2018-08-27T22:36:02.475Z,84.70
2018-08-27T22:38:29.882Z,84.70
2018-08-27T22:40:57.913Z,84.50
2018-08-27T22:43:25.226Z,83.90
2018-08-27T22:45:52.521Z,84.00
2018-08-27T22:48:19.823Z,84.00
2018-08-27T22:50:47.147Z,84.00
2018-08-27T22:53:14.445Z,84.20
2018-08-27T22:55:41.739Z,84.40
2018-08-27T22:58:09.433Z,84.70
2018-08-27T23:00:36.808Z,84.50
2018-08-27T23:03:04.261Z,84.20
2018-08-27T23:05:31.564Z,84.20
2018-08-27T23:07:58.867Z,84.20
2018-08-27T23:10:26.167Z,84.30
2018-08-27T23:12:53.460Z,84.00
2018-08-27T23:15:20.815Z,83.40
2018-08-27T23:17:48.120Z,81.10
2018-08-27T23:20:16.465Z,80.20
2018-08-27T23:22:43.783Z,80.80
2018-08-27T23:25:11.102Z,78.40
2018-08-27T23:27:38.410Z,78.60
2018-08-27T23:30:05.716Z,77.40
2018-08-27T23:32:33.083Z,77.30
2018-08-27T23:35:00.378Z,78.00
2018-08-27T23:37:27.701Z,78.40
2018-08-27T23:39:55.037Z,77.60
2018-08-27T23:42:22.313Z,77.70
2018-08-27T23:44:49.636Z,77.80
2018-08-27T23:47:16.980Z,78.40
2018-08-27T23:49:44.360Z,77.40
2018-08-27T23:52:11.698Z,78.10
2018-08-27T23:54:39.003Z,78.10
2018-08-27T23:57:06.334Z,78.60
2018-08-27T23:59:33.727Z,79.00
